createdAt,value
2018-04-18T00:01:19.666Z,14.90
2018-04-18T00:03:47.946Z,14.90
2018-04-18T00:06:15.444Z,14.80
2018-04-18T00:08:42.945Z,14.80
2018-04-18T00:11:11.233Z,14.80
2018-04-18T00:13:38.733Z,14.80
2018-04-18T00:16:06.270Z,14.80
2018-04-18T00:18:33.773Z,14.70
2018-04-18T00:21:01.272Z,14.70
2018-04-18T00:23:28.801Z,14.70
2018-04-18T00:25:57.066Z,14.60
2018-04-18T00:28:24.592Z,14.60
2018-04-18T00:30:52.096Z,14.60
2018-04-18T00:33:20.369Z,14.50
2018-04-18T00:35:48.665Z,14.50
2018-04-18T00:38:16.928Z,14.40
2018-04-18T00:40:45.221Z,14.40
2018-04-18T00:43:12.726Z,14.40
2018-04-18T00:45:40.228Z,14.40
2018-04-18T00:48:08.521Z,14.30
2018-04-18T00:50:36.036Z,14.30
2018-04-18T00:53:03.560Z,14.20
2018-04-18T00:55:31.056Z,14.20
2018-04-18T00:57:59.327Z,14.10
2018-04-18T01:00:26.852Z,14.00
2018-04-18T01:02:54.353Z,14.10
2018-04-18T01:05:22.669Z,13.90
2018-04-18T01:07:50.175Z,13.80
2018-04-18T01:10:17.669Z,13.80
2018-04-18T01:12:45.961Z,13.80
2018-04-18T01:15:13.463Z,13.70
2018-04-18T01:17:40.993Z,13.80
2018-04-18T01:20:08.501Z,13.80
2018-04-18T01:22:36.003Z,13.70
2018-04-18T01:25:03.533Z,13.70
2018-04-18T01:27:31.805Z,13.60
2018-04-18T01:30:00.105Z,13.60
2018-04-18T01:32:27.608Z,13.50
2018-04-18T01:34:55.110Z,13.50
2018-04-18T01:37:23.401Z,13.50
2018-04-18T01:39:50.905Z,13.50
2018-04-18T01:42:18.429Z,13.50
2018-04-18T01:44:45.924Z,13.50
2018-04-18T01:47:13.433Z,13.50
2018-04-18T01:49:40.957Z,13.40
2018-04-18T01:52:09.964Z,13.20
2018-04-18T01:54:38.262Z,13.20
2018-04-18T01:57:05.765Z,13.20
2018-04-18T01:59:33.274Z,13.20
2018-04-18T02:02:00.820Z,13.20
2018-04-18T02:04:28.353Z,13.10
2018-04-18T02:06:55.877Z,13.10
2018-04-18T02:09:23.378Z,13.10
2018-04-18T02:11:50.886Z,13.10
2018-04-18T02:14:18.416Z,12.90
2018-04-18T02:16:46.691Z,12.90
2018-04-18T02:19:14.995Z,12.90
2018-04-18T02:21:42.496Z,12.90
2018-04-18T02:24:09.996Z,12.90
2018-04-18T02:26:37.525Z,12.90
2018-04-18T02:29:06.534Z,12.80
2018-04-18T02:31:34.825Z,12.70
2018-04-18T02:34:03.084Z,12.70
2018-04-18T02:36:31.340Z,12.60
2018-04-18T02:38:58.857Z,12.60
2018-04-18T02:41:26.357Z,12.60
2018-04-18T02:43:53.878Z,12.50
2018-04-18T02:46:21.373Z,12.60
2018-04-18T02:48:48.868Z,12.50
2018-04-18T02:51:17.152Z,12.50
2018-04-18T02:53:44.648Z,12.50
2018-04-18T02:56:12.169Z,12.50
2018-04-18T02:58:39.669Z,12.50
2018-04-18T03:01:07.188Z,12.40
2018-04-18T03:03:34.689Z,12.30
2018-04-18T03:06:02.187Z,12.30
2018-04-18T03:08:30.481Z,12.20
2018-04-18T03:10:57.976Z,12.20
2018-04-18T03:13:25.516Z,12.10
2018-04-18T03:15:53.016Z,12.10
2018-04-18T03:18:20.532Z,12.00
2018-04-18T03:20:48.032Z,12.00
2018-04-18T03:23:15.526Z,12.00
2018-04-18T03:25:43.817Z,11.90
2018-04-18T03:28:11.312Z,11.90
2018-04-18T03:30:38.825Z,11.90
2018-04-18T03:33:06.316Z,11.90
2018-04-18T03:35:33.834Z,11.90
2018-04-18T03:38:02.093Z,11.80
2018-04-18T03:40:30.352Z,11.90
2018-04-18T03:42:57.865Z,11.80
2018-04-18T03:45:25.359Z,11.80
2018-04-18T03:47:52.876Z,11.90
2018-04-18T03:50:20.372Z,11.80
2018-04-18T03:52:47.893Z,11.80
2018-04-18T03:55:15.388Z,11.80
2018-04-18T03:57:42.880Z,11.80
2018-04-18T04:00:11.348Z,11.80
2018-04-18T04:02:38.854Z,11.80
2018-04-18T04:05:06.369Z,11.80
2018-04-18T04:07:33.874Z,11.70
2018-04-18T04:10:01.398Z,11.70
2018-04-18T04:12:29.656Z,11.70
2018-04-18T04:14:57.157Z,11.60
2018-04-18T04:17:36.629Z,11.70
2018-04-18T04:20:15.993Z,11.60
2018-04-18T04:22:55.392Z,11.60
2018-04-18T04:25:22.908Z,11.50
2018-04-18T04:27:51.177Z,11.50
2018-04-18T04:30:20.363Z,11.50
2018-04-18T04:32:47.888Z,11.50
2018-04-18T04:35:15.393Z,11.40
2018-04-18T04:37:43.693Z,11.30
2018-04-18T04:40:11.188Z,11.30
2018-04-18T04:42:38.711Z,11.20
2018-04-18T04:45:06.220Z,11.20
2018-04-18T04:47:33.723Z,11.30
2018-04-18T04:50:02.013Z,11.20
2018-04-18T04:52:30.413Z,11.20
2018-04-18T04:54:57.928Z,11.20
2018-04-18T04:57:26.199Z,11.30
2018-04-18T04:59:54.493Z,11.30
2018-04-18T05:02:22.012Z,11.30
2018-04-18T05:04:49.520Z,11.30
2018-04-18T05:07:17.044Z,11.30
2018-04-18T05:09:45.329Z,11.30
2018-04-18T05:12:13.616Z,11.30
2018-04-18T05:14:41.883Z,11.30
2018-04-18T05:17:10.176Z,11.30
2018-04-18T05:19:37.676Z,11.30
2018-04-18T05:22:05.176Z,11.40
2018-04-18T05:24:33.460Z,11.40
2018-04-18T05:27:01.720Z,11.50
2018-04-18T05:29:29.245Z,11.50
2018-04-18T05:31:56.751Z,11.50
2018-04-18T05:34:25.025Z,11.50
2018-04-18T05:36:53.317Z,11.60
2018-04-18T05:39:20.824Z,11.50
2018-04-18T05:41:48.349Z,11.60
2018-04-18T05:44:15.852Z,11.60
2018-04-18T05:46:43.376Z,11.60
2018-04-18T05:49:10.885Z,11.70
2018-04-18T05:51:39.156Z,11.70
2018-04-18T05:54:06.676Z,11.80
2018-04-18T05:56:34.173Z,11.80
2018-04-18T05:59:01.703Z,11.70
2018-04-18T06:01:29.204Z,11.80
2018-04-18T06:03:56.728Z,11.80
2018-04-18T06:06:24.229Z,11.80
2018-04-18T06:08:52.496Z,11.90
2018-04-18T06:11:20.792Z,11.80
2018-04-18T06:13:48.300Z,11.80
2018-04-18T06:16:15.820Z,11.90
2018-04-18T06:18:43.325Z,11.90
2018-04-18T06:21:10.845Z,12.00
2018-04-18T06:23:38.352Z,12.00
2018-04-18T06:26:05.872Z,12.10
2018-04-18T06:28:33.376Z,12.20
2018-04-18T06:31:02.389Z,12.30
2018-04-18T06:33:30.680Z,12.40
2018-04-18T06:35:58.180Z,12.40
2018-04-18T06:38:25.721Z,12.50
2018-04-18T06:40:53.218Z,12.60
2018-04-18T06:43:20.740Z,12.60
2018-04-18T06:45:48.500Z,12.70
2018-04-18T06:48:16.745Z,12.90
2018-04-18T06:50:45.033Z,13.00
2018-04-18T06:53:12.534Z,12.90
2018-04-18T06:55:40.187Z,13.10
2018-04-18T06:58:07.693Z,13.20
2018-04-18T07:00:35.980Z,13.30
2018-04-18T07:03:04.252Z,13.40
2018-04-18T07:05:32.517Z,13.50
2018-04-18T07:08:00.824Z,13.60
2018-04-18T07:10:28.329Z,13.60
2018-04-18T07:12:55.856Z,13.70
2018-04-18T07:15:23.360Z,13.80
2018-04-18T07:17:50.884Z,13.80
2018-04-18T07:20:18.384Z,13.90
2018-04-18T07:22:45.885Z,14.00
2018-04-18T07:25:13.417Z,14.10
2018-04-18T07:27:41.740Z,14.30
2018-04-18T07:30:09.225Z,14.30
2018-04-18T07:32:36.724Z,14.40
2018-04-18T07:35:04.248Z,14.50
2018-04-18T07:37:31.749Z,14.50
2018-04-18T07:39:59.252Z,14.60
2018-04-18T07:42:26.853Z,14.70
2018-04-18T07:44:54.372Z,14.80
2018-04-18T07:47:21.892Z,15.00
2018-04-18T07:49:49.392Z,15.10
2018-04-18T07:52:16.916Z,15.20
2018-04-18T07:54:44.420Z,15.30
2018-04-18T07:57:13.432Z,15.50
2018-04-18T07:59:41.717Z,15.60
2018-04-18T08:02:09.980Z,15.70
2018-04-18T08:04:38.269Z,15.80
2018-04-18T08:07:06.544Z,15.90
2018-04-18T08:09:35.969Z,16.10
2018-04-18T08:12:03.494Z,16.00
2018-04-18T08:14:31.755Z,16.30
2018-04-18T08:16:59.292Z,16.30
2018-04-18T08:19:26.788Z,16.40
2018-04-18T08:21:55.078Z,16.60
2018-04-18T08:24:23.345Z,16.70
2018-04-18T08:26:51.620Z,16.80
2018-04-18T08:29:19.909Z,16.90
2018-04-18T08:31:48.188Z,17.00
2018-04-18T08:34:15.733Z,17.00
2018-04-18T08:36:44.018Z,17.20
2018-04-18T08:39:12.310Z,17.30
2018-04-18T08:41:39.817Z,17.30
2018-04-18T08:44:07.316Z,17.40
2018-04-18T08:46:35.600Z,17.60
2018-04-18T08:49:03.096Z,17.50
2018-04-18T08:51:30.620Z,17.70
2018-04-18T08:53:58.120Z,17.80
2018-04-18T08:56:25.645Z,17.90
2018-04-18T08:58:53.148Z,17.90
2018-04-18T09:01:20.665Z,18.00
2018-04-18T09:03:48.193Z,18.10
2018-04-18T09:06:16.460Z,18.30
2018-04-18T09:08:43.985Z,18.40
2018-04-18T09:11:11.484Z,18.40
2018-04-18T09:13:39.776Z,18.60
2018-04-18T09:16:07.281Z,18.60
2018-04-18T09:18:34.788Z,18.70
2018-04-18T09:21:03.079Z,19.00
2018-04-18T09:23:30.589Z,19.00
2018-04-18T09:25:58.113Z,19.20
2018-04-18T09:28:25.616Z,19.30
2018-04-18T09:30:53.137Z,19.50
2018-04-18T09:33:20.642Z,19.70
2018-04-18T09:35:48.936Z,20.10
2018-04-18T09:38:17.204Z,20.30
2018-04-18T09:40:45.468Z,20.60
2018-04-18T09:43:12.988Z,20.60
2018-04-18T09:45:40.488Z,20.90
2018-04-18T09:48:08.009Z,21.20
2018-04-18T09:50:35.510Z,21.50
2018-04-18T09:53:03.812Z,22.30
2018-04-18T09:55:31.320Z,22.30
2018-04-18T09:57:58.824Z,22.70
2018-04-18T10:00:32.954Z,24.30
2018-04-18T10:03:05.373Z,24.30
2018-04-18T10:05:32.897Z,25.10
2018-04-18T10:08:00.395Z,26.40
2018-04-18T10:10:27.916Z,27.30
2018-04-18T10:12:55.420Z,28.60
2018-04-18T10:15:22.907Z,29.90
2018-04-18T10:17:50.429Z,31.10
2018-04-18T10:20:17.926Z,31.90
2018-04-18T10:22:45.488Z,31.50
2018-04-18T10:25:13.724Z,32.80
2018-04-18T10:27:41.245Z,32.70
2018-04-18T10:30:08.741Z,34.00
2018-04-18T10:32:36.233Z,34.10
2018-04-18T10:35:03.749Z,34.50
2018-04-18T10:37:31.244Z,35.20
2018-04-18T10:39:59.523Z,34.90
2018-04-18T10:42:27.025Z,34.90
2018-04-18T10:44:54.535Z,35.40
2018-04-18T10:47:22.792Z,35.60
2018-04-18T10:49:50.286Z,35.60
2018-04-18T10:52:17.800Z,36.60
2018-04-18T10:54:45.296Z,37.40
2018-04-18T10:57:12.812Z,38.60
2018-04-18T10:59:40.312Z,40.10
2018-04-18T11:02:07.836Z,41.20
2018-04-18T11:04:35.328Z,41.60
2018-04-18T11:07:02.820Z,43.10
2018-04-18T11:09:30.340Z,42.50
2018-04-18T11:11:57.836Z,42.20
2018-04-18T11:14:25.351Z,42.90
2018-04-18T11:16:53.612Z,43.80
2018-04-18T11:19:21.901Z,43.30
2018-04-18T11:21:50.160Z,43.10
2018-04-18T11:24:17.652Z,43.10
2018-04-18T11:26:45.172Z,43.30
2018-04-18T11:29:13.436Z,44.20
2018-04-18T11:31:40.956Z,44.20
2018-04-18T11:34:08.453Z,44.70
2018-04-18T11:36:35.976Z,44.20
2018-04-18T11:39:03.467Z,45.00
2018-04-18T11:41:30.964Z,46.70
2018-04-18T11:43:59.245Z,47.80
2018-04-18T11:46:27.504Z,47.90
2018-04-18T11:48:55.784Z,47.00
2018-04-18T11:51:24.064Z,47.90
2018-04-18T11:53:51.573Z,47.80
2018-04-18T11:56:19.065Z,48.10
2018-04-18T11:58:46.561Z,47.60
2018-04-18T12:01:14.085Z,48.00
2018-04-18T12:03:41.581Z,48.60
2018-04-18T12:06:09.098Z,48.60
2018-04-18T12:08:36.593Z,48.90
2018-04-18T12:11:04.117Z,48.60
2018-04-18T12:13:31.613Z,48.60
2018-04-18T12:15:59.132Z,49.20
2018-04-18T12:18:27.395Z,48.10
2018-04-18T12:20:54.892Z,48.00
2018-04-18T12:23:23.177Z,47.50
2018-04-18T12:25:50.668Z,47.50
2018-04-18T12:28:18.180Z,48.10
2018-04-18T12:30:46.447Z,47.80
2018-04-18T12:33:14.728Z,46.30
2018-04-18T12:35:42.989Z,45.60
2018-04-18T12:38:10.488Z,45.60
2018-04-18T12:40:38.004Z,45.20
2018-04-18T12:43:05.500Z,44.80
2018-04-18T12:45:33.016Z,44.20
2018-04-18T12:48:00.514Z,43.00
2018-04-18T12:50:28.081Z,41.90
2018-04-18T12:52:55.576Z,40.50
2018-04-18T12:55:23.068Z,39.70
2018-04-18T12:57:51.359Z,38.50
2018-04-18T13:00:18.853Z,38.40
2018-04-18T13:02:46.369Z,37.90
2018-04-18T13:05:14.624Z,37.60
2018-04-18T13:07:42.141Z,37.60
2018-04-18T13:10:09.640Z,37.30
2018-04-18T13:12:37.136Z,36.90
2018-04-18T13:15:04.656Z,37.70
2018-04-18T13:17:32.160Z,38.50
2018-04-18T13:19:59.676Z,39.70
2018-04-18T13:22:27.173Z,40.70
2018-04-18T13:24:55.460Z,40.30
2018-04-18T13:27:22.961Z,40.30
2018-04-18T13:29:50.457Z,41.10
2018-04-18T13:32:18.736Z,41.20
2018-04-18T13:34:46.227Z,41.20
2018-04-18T13:37:13.740Z,40.90
2018-04-18T13:39:42.005Z,41.00
2018-04-18T13:42:09.526Z,41.00
2018-04-18T13:44:37.020Z,40.90
2018-04-18T13:47:04.512Z,41.10
2018-04-18T13:49:32.031Z,40.40
2018-04-18T13:51:59.540Z,39.90
2018-04-18T13:54:27.063Z,39.50
2018-04-18T13:56:55.320Z,38.80
2018-04-18T13:59:22.844Z,38.70
2018-04-18T14:01:50.340Z,37.90
2018-04-18T14:04:17.837Z,37.70
2018-04-18T14:06:45.356Z,37.20
2018-04-18T14:09:12.848Z,37.10
2018-04-18T14:11:40.368Z,37.10
2018-04-18T14:14:09.368Z,37.00
2018-04-18T14:16:36.860Z,37.00
2018-04-18T14:19:04.376Z,37.30
2018-04-18T14:21:31.882Z,37.30
2018-04-18T14:23:59.396Z,37.70
2018-04-18T14:26:26.890Z,37.70
2018-04-18T14:28:54.425Z,37.10
2018-04-18T14:31:21.922Z,37.00
2018-04-18T14:33:49.412Z,37.10
2018-04-18T14:36:16.936Z,37.00
2018-04-18T14:38:44.441Z,36.20
2018-04-18T14:41:11.960Z,35.90
2018-04-18T14:43:39.461Z,35.40
2018-04-18T14:46:06.978Z,34.80
2018-04-18T14:48:34.477Z,34.30
2018-04-18T14:51:01.968Z,33.70
2018-04-18T14:53:30.253Z,33.20
2018-04-18T14:55:58.517Z,33.10
2018-04-18T14:58:26.800Z,32.80
2018-04-18T15:00:55.056Z,32.40
2018-04-18T15:03:22.573Z,32.40
2018-04-18T15:05:50.065Z,32.20
2018-04-18T15:08:17.561Z,32.20
2018-04-18T15:10:45.090Z,32.10
2018-04-18T15:13:13.371Z,32.30
2018-04-18T15:15:40.884Z,32.30
2018-04-18T15:18:08.394Z,32.30
2018-04-18T15:20:36.681Z,32.40
2018-04-18T15:23:04.941Z,32.40
2018-04-18T15:25:32.433Z,32.30
2018-04-18T15:27:59.953Z,32.40
2018-04-18T15:30:27.453Z,32.40
2018-04-18T15:32:54.974Z,32.40
2018-04-18T15:35:22.469Z,32.30
2018-04-18T15:37:49.987Z,32.10
2018-04-18T15:40:17.488Z,32.00
2018-04-18T15:42:44.988Z,32.10
2018-04-18T15:45:12.512Z,32.10
2018-04-18T15:47:40.009Z,32.00
2018-04-18T15:50:07.525Z,32.10
2018-04-18T15:52:35.028Z,31.90
2018-04-18T15:55:02.570Z,31.70
2018-04-18T15:57:30.064Z,31.60
2018-04-18T15:59:58.324Z,31.30
2018-04-18T16:02:25.840Z,31.30
2018-04-18T16:04:53.340Z,31.30
2018-04-18T16:07:20.857Z,31.20
2018-04-18T16:09:48.350Z,31.10
2018-04-18T16:12:15.872Z,30.90
2018-04-18T16:14:43.376Z,30.90
2018-04-18T16:17:10.868Z,30.90
2018-04-18T16:19:39.148Z,30.80
2018-04-18T16:22:06.641Z,30.80
2018-04-18T16:24:34.160Z,30.90
2018-04-18T16:27:02.417Z,30.90
2018-04-18T16:29:41.824Z,30.90
2018-04-18T16:32:09.320Z,30.90
2018-04-18T16:34:37.589Z,30.70
2018-04-18T16:37:05.110Z,30.70
2018-04-18T16:39:32.607Z,30.60
2018-04-18T16:42:00.893Z,30.40
2018-04-18T16:44:29.151Z,30.40
2018-04-18T16:46:56.668Z,30.30
2018-04-18T16:49:24.179Z,30.30
2018-04-18T16:51:52.447Z,30.10
2018-04-18T16:54:19.968Z,30.10
2018-04-18T16:56:47.460Z,30.00
2018-04-18T16:59:14.972Z,29.90
2018-04-18T17:01:42.464Z,29.80
2018-04-18T17:04:09.984Z,29.70
2018-04-18T17:06:37.524Z,29.70
2018-04-18T17:09:05.740Z,29.60
2018-04-18T17:11:33.257Z,29.60
2018-04-18T17:14:01.525Z,29.40
2018-04-18T17:16:29.804Z,29.30
2018-04-18T17:18:58.072Z,29.20
2018-04-18T17:21:26.355Z,29.10
2018-04-18T17:23:54.616Z,29.00
2018-04-18T17:26:22.112Z,28.90
2018-04-18T17:28:49.627Z,28.90
2018-04-18T17:31:17.120Z,28.90
2018-04-18T17:33:44.639Z,28.80
2018-04-18T17:36:12.134Z,28.70
2018-04-18T17:38:40.413Z,28.50
2018-04-18T17:41:07.904Z,28.50
2018-04-18T17:43:35.397Z,28.40
2018-04-18T17:46:03.696Z,28.10
2018-04-18T17:48:31.951Z,27.90
2018-04-18T17:50:59.468Z,27.80
2018-04-18T17:53:26.960Z,27.70
2018-04-18T17:55:54.476Z,27.60
2018-04-18T17:58:21.968Z,27.40
2018-04-18T18:00:49.467Z,27.30
2018-04-18T18:03:17.748Z,27.00
2018-04-18T18:05:46.004Z,26.90
2018-04-18T18:08:13.520Z,26.90
2018-04-18T18:10:41.017Z,26.70
2018-04-18T18:13:08.531Z,26.50
2018-04-18T18:15:36.024Z,26.40
2018-04-18T18:18:03.524Z,26.30
2018-04-18T18:20:31.048Z,26.10
2018-04-18T18:22:58.540Z,26.00
2018-04-18T18:25:26.052Z,25.90
2018-04-18T18:27:53.544Z,25.80
2018-04-18T18:30:21.837Z,25.60
2018-04-18T18:32:49.328Z,25.50
2018-04-18T18:35:16.825Z,25.40
2018-04-18T18:37:45.108Z,25.00
2018-04-18T18:40:13.369Z,25.00
2018-04-18T18:42:40.888Z,25.00
2018-04-18T18:45:08.385Z,24.90
2018-04-18T18:47:35.884Z,24.80
2018-04-18T18:50:03.408Z,24.60
2018-04-18T18:52:30.910Z,24.60
2018-04-18T18:54:58.424Z,24.50
2018-04-18T18:57:25.916Z,24.30
2018-04-18T18:59:53.473Z,24.30
2018-04-18T19:02:21.712Z,24.10
2018-04-18T19:04:49.204Z,24.10
2018-04-18T19:07:16.720Z,24.00
2018-04-18T19:09:44.212Z,23.90
2018-04-18T19:12:12.498Z,23.80
2018-04-18T19:14:39.994Z,23.80
2018-04-18T19:17:07.525Z,23.70
2018-04-18T19:19:35.016Z,23.60
2018-04-18T19:22:02.512Z,23.50
2018-04-18T19:24:30.793Z,23.40
2018-04-18T19:26:59.065Z,23.30
2018-04-18T19:29:27.344Z,23.20
2018-04-18T19:31:55.600Z,23.00
2018-04-18T19:34:23.120Z,23.00
2018-04-18T19:36:50.632Z,22.90
2018-04-18T19:39:18.892Z,22.70
2018-04-18T19:41:46.412Z,22.70
2018-04-18T19:44:13.907Z,22.60
2018-04-18T19:46:41.421Z,22.60
2018-04-18T19:49:08.912Z,22.50
2018-04-18T19:51:36.429Z,22.40
2018-04-18T19:54:03.928Z,22.30
2018-04-18T19:56:31.433Z,22.20
2018-04-18T19:58:59.716Z,22.10
2018-04-18T20:01:27.208Z,22.10
2018-04-18T20:03:54.720Z,22.10
2018-04-18T20:06:23.198Z,21.90
2018-04-18T20:08:50.744Z,21.90
2018-04-18T20:11:18.246Z,21.80
2018-04-18T20:13:45.774Z,21.80
2018-04-18T20:16:14.041Z,21.50
2018-04-18T20:18:41.541Z,21.50
2018-04-18T20:21:09.059Z,21.50
2018-04-18T20:23:36.551Z,21.40
2018-04-18T20:26:04.092Z,21.30
2018-04-18T20:28:32.361Z,21.20
2018-04-18T20:31:00.653Z,21.00
2018-04-18T20:33:28.156Z,21.00
2018-04-18T20:35:55.661Z,20.90
2018-04-18T20:38:23.949Z,20.70
2018-04-18T20:40:51.440Z,20.70
2018-04-18T20:43:18.960Z,20.70
2018-04-18T20:45:47.216Z,20.50
2018-04-18T20:48:14.737Z,20.50
2018-04-18T20:50:42.232Z,20.50
2018-04-18T20:53:10.502Z,20.30
2018-04-18T20:55:38.024Z,20.30
2018-04-18T20:58:05.529Z,20.20
2018-04-18T21:00:33.817Z,20.10
2018-04-18T21:03:02.085Z,20.00
2018-04-18T21:05:30.377Z,19.90
2018-04-18T21:07:57.877Z,19.90
2018-04-18T21:10:25.379Z,19.90
2018-04-18T21:12:53.663Z,19.80
2018-04-18T21:15:21.929Z,19.70
2018-04-18T21:17:50.213Z,19.70
2018-04-18T21:20:18.475Z,19.60
2018-04-18T21:22:45.989Z,19.50
2018-04-18T21:25:13.489Z,19.50
2018-04-18T21:27:41.054Z,19.50
2018-04-18T21:30:08.532Z,19.40
2018-04-18T21:32:36.804Z,19.30
2018-04-18T21:35:05.084Z,19.20
2018-04-18T21:37:33.347Z,19.10
2018-04-18T21:40:01.632Z,19.00
2018-04-18T21:42:29.907Z,18.90
2018-04-18T21:44:58.192Z,18.90
2018-04-18T21:47:26.448Z,18.80
2018-04-18T21:49:54.708Z,18.70
2018-04-18T21:52:22.224Z,18.70
2018-04-18T21:54:49.722Z,18.70
2018-04-18T21:57:17.237Z,18.60
2018-04-18T21:59:44.736Z,18.60
2018-04-18T22:02:12.254Z,18.50
2018-04-18T22:04:39.756Z,18.50
2018-04-18T22:07:07.274Z,18.50
2018-04-18T22:09:34.777Z,18.40
2018-04-18T22:12:02.268Z,18.30
2018-04-18T22:14:30.556Z,18.20
2018-04-18T22:16:58.131Z,18.20
2018-04-18T22:19:25.601Z,18.10
2018-04-18T22:21:53.104Z,18.00
2018-04-18T22:24:20.621Z,18.00
2018-04-18T22:26:48.121Z,18.00
2018-04-18T22:29:16.416Z,17.80
2018-04-18T22:31:44.673Z,17.80
2018-04-18T22:34:12.941Z,17.70
2018-04-18T22:36:40.460Z,17.70
2018-04-18T22:39:07.957Z,17.70
2018-04-18T22:41:35.478Z,17.60
2018-04-18T22:44:02.973Z,17.60
2018-04-18T22:46:30.488Z,17.60
2018-04-18T22:48:57.980Z,17.50
2018-04-18T22:51:25.476Z,17.40
2018-04-18T22:53:53.764Z,17.40
2018-04-18T22:56:21.268Z,17.40
2018-04-18T22:58:48.788Z,17.40
2018-04-18T23:01:16.283Z,17.30
2018-04-18T23:03:43.807Z,17.30
2018-04-18T23:06:11.312Z,17.30
2018-04-18T23:08:38.813Z,17.30
2018-04-18T23:11:06.333Z,17.20
2018-04-18T23:13:35.336Z,17.10
2018-04-18T23:16:02.852Z,17.10
2018-04-18T23:18:30.352Z,17.00
2018-04-18T23:20:57.876Z,17.00
2018-04-18T23:23:25.372Z,16.90
2018-04-18T23:25:52.890Z,16.90
2018-04-18T23:28:20.435Z,16.80
2018-04-18T23:30:48.661Z,16.80
2018-04-18T23:33:16.176Z,16.80
2018-04-18T23:35:43.672Z,16.70
2018-04-18T23:38:11.192Z,16.70
2018-04-18T23:40:38.684Z,16.60
2018-04-18T23:43:06.188Z,16.60
2018-04-18T23:45:33.713Z,16.60
2018-04-18T23:48:01.204Z,16.50
2018-04-18T23:50:28.723Z,16.40
2018-04-18T23:52:56.216Z,16.40
2018-04-18T23:55:23.737Z,16.30
2018-04-18T23:57:52.740Z,16.20
